Dutton, Virginia
Current Conditions -  °F | °C
As of 1:35 AM on Monday 26 Jan 2015 (Local Time) from KW75 Reporting Station
Clear Clear  
Wind Chill: 36°   Ceiling: Unl
Heat Index: 39°   Visibility: 10mi
Dew Point: 33°   Wind: 5mph
Humidity: 80%   Direction: 130°SE
Pressure: 29.83"   Gusts: NA
Location:  37.5°N, 76.46°W
Report Text: KW75 260635Z AUTO 13004KT 10SM CLR 04/01 A2983 RMK AO1 T00400008
Loading
Personal Weather Stations






























Interactive Weather Map New forecast layout! Learn more

10-Day Weather Forecast

Advertisements
Track Severe Weather on mobile